Time;durP1;ratioP1;P1;durP2;ratioP2;P2;SDS_P1;SDS_P2;PMS_P1;PMS_P2;Temp;Humidity;BMP_temperature;BMP_pressure;BME280_temperature;BME280_humidity;BME280_pressure;Samples;Min_cycle;Max_cycle;Signal;HPM_P1;HPM_P2
2023/08/17 00:00:30;;;;;;;11.10;2.50;;;16.00;99.90;;;;;;5068447;28;20060;-71
2023/08/17 00:02:56;;;;;;;11.07;2.40;;;16.00;99.90;;;;;;5054754;28;272292;-72
2023/08/17 00:05:22;;;;;;;9.10;2.03;;;16.00;99.90;;;;;;5063108;28;20500;-72
2023/08/17 00:07:48;;;;;;;11.07;2.00;;;16.00;99.90;;;;;;5054213;28;270703;-72
2023/08/17 00:10:14;;;;;;;7.00;2.00;;;16.00;99.90;;;;;;5064805;28;20063;-72
2023/08/17 00:12:40;;;;;;;12.32;2.53;;;16.00;99.90;;;;;;5051972;28;276718;-72
2023/08/17 00:15:07;;;;;;;10.10;2.25;;;16.00;99.90;;;;;;5062425;28;20044;-72
2023/08/17 00:17:33;;;;;;;12.00;2.40;;;16.00;99.90;;;;;;5043762;28;258774;-72
2023/08/17 00:19:59;;;;;;;13.60;2.50;;;16.00;99.90;;;;;;5066837;28;20056;-72
2023/08/17 00:22:25;;;;;;;13.43;2.85;;;16.00;99.90;;;;;;5040986;28;265084;-71
2023/08/17 00:24:51;;;;;;;10.75;2.42;;;16.00;99.90;;;;;;5068284;28;20388;-71
2023/08/17 00:27:17;;;;;;;10.15;2.38;;;16.00;99.90;;;;;;5060528;28;274526;-71
2023/08/17 00:29:43;;;;;;;10.25;2.60;;;16.00;99.90;;;;;;5069905;28;20052;-72
2023/08/17 00:32:09;;;;;;;9.15;2.70;;;16.00;99.90;;;;;;5054850;28;255335;-71
2023/08/17 00:34:35;;;;;;;11.88;2.38;;;16.00;99.90;;;;;;5074716;28;20065;-71
2023/08/17 00:37:01;;;;;;;11.98;2.55;;;16.00;99.90;;;;;;5043170;28;261462;-70
2023/08/17 00:39:28;;;;;;;10.27;2.30;;;16.00;99.90;;;;;;5067207;28;20056;-70
2023/08/17 00:41:54;;;;;;;9.93;2.50;;;16.00;99.90;;;;;;5048230;28;261034;-71
2023/08/17 00:44:20;;;;;;;10.90;2.58;;;16.00;99.90;;;;;;5066494;28;20052;-70
2023/08/17 00:46:46;;;;;;;9.80;2.47;;;16.00;99.90;;;;;;5048710;28;272467;-71
2023/08/17 00:49:12;;;;;;;13.80;2.60;;;16.00;99.90;;;;;;5054002;28;20057;-70
2023/08/17 00:51:39;;;;;;;11.30;2.60;;;16.00;99.90;;;;;;5048671;28;264060;-70
2023/08/17 00:54:05;;;;;;;9.82;2.50;;;16.00;99.90;;;;;;5047142;28;20048;-71
2023/08/17 00:56:31;;;;;;;15.10;2.45;;;16.00;99.90;;;;;;5060021;28;20056;-71
2023/08/17 00:58:57;;;;;;;9.52;2.30;;;16.00;99.90;;;;;;5047653;28;258050;-71
2023/08/17 01:01:24;;;;;;;8.25;2.22;;;16.00;99.90;;;;;;5067935;28;20055;-70
2023/08/17 01:03:50;;;;;;;12.48;2.42;;;16.00;99.90;;;;;;5067304;28;261991;-71
2023/08/17 01:06:17;;;;;;;10.10;2.15;;;16.00;99.90;;;;;;5065587;28;20430;-71
2023/08/17 01:08:44;;;;;;;10.27;1.88;;;15.90;99.90;;;;;;5051030;28;266993;-71
2023/08/17 01:11:29;;;;;;;11.43;2.72;;;15.90;99.90;;;;;;5061085;28;20048;-71
2023/08/17 01:14:25;;;;;;;9.48;2.13;;;15.90;99.90;;;;;;5050219;28;140020;-70
2023/08/17 01:16:58;;;;;;;9.75;2.35;;;15.90;99.90;;;;;;5054444;28;274310;-70
2023/08/17 01:19:27;;;;;;;10.05;2.38;;;15.80;99.90;;;;;;5069561;28;20061;-70
2023/08/17 01:22:01;;;;;;;9.23;2.60;;;15.80;99.90;;;;;;5041350;28;242098;-70
2023/08/17 01:24:27;;;;;;;10.32;2.38;;;15.70;99.90;;;;;;5049631;28;20048;-71
2023/08/17 01:26:53;;;;;;;11.77;2.65;;;15.70;99.90;;;;;;5050458;28;258847;-71
2023/08/17 01:29:20;;;;;;;12.60;2.60;;;15.60;99.90;;;;;;5078198;28;20061;-71
2023/08/17 01:31:46;;;;;;;11.27;2.33;;;15.60;99.90;;;;;;5049122;28;266236;-70
2023/08/17 01:34:18;;;;;;;9.20;2.47;;;15.50;99.90;;;;;;5068915;28;20048;-70
2023/08/17 01:36:53;;;;;;;10.00;2.08;;;15.40;99.90;;;;;;5041611;28;274233;-70
2023/08/17 01:39:23;;;;;;;9.48;2.30;;;15.40;99.90;;;;;;5055901;28;20063;-71
2023/08/17 01:41:51;;;;;;;15.27;2.77;;;15.40;99.90;;;;;;5029843;28;260542;-70
2023/08/17 01:44:17;;;;;;;12.55;2.65;;;15.30;99.90;;;;;;5071479;28;20056;-71
2023/08/17 01:46:43;;;;;;;8.35;2.20;;;15.30;99.90;;;;;;5044216;28;270229;-71
2023/08/17 01:49:09;;;;;;;8.63;2.75;;;15.30;99.90;;;;;;5080911;28;20048;-70
2023/08/17 01:51:35;;;;;;;11.57;2.72;;;15.20;99.90;;;;;;5058028;28;20435;-71
2023/08/17 01:54:01;;;;;;;10.80;2.42;;;15.20;99.90;;;;;;5018398;28;127606;-70
2023/08/17 01:56:27;;;;;;;14.48;3.08;;;15.20;99.90;;;;;;5043050;28;20072;-70
2023/08/17 01:58:54;;;;;;;11.88;2.70;;;15.10;99.90;;;;;;5048480;28;271943;-70
2023/08/17 02:01:20;;;;;;;13.80;2.85;;;15.20;99.90;;;;;;5065125;28;20075;-73
2023/08/17 02:03:46;;;;;;;10.88;2.40;;;15.20;99.90;;;;;;5046497;28;277420;-72
2023/08/17 02:06:12;;;;;;;13.88;2.90;;;15.20;99.90;;;;;;5059238;28;20422;-72
2023/08/17 02:08:39;;;;;;;11.82;3.10;;;15.20;99.90;;;;;;5060540;28;264986;-70
2023/08/17 02:11:05;;;;;;;10.02;2.60;;;15.20;99.90;;;;;;5058544;28;20052;-71
2023/08/17 02:13:31;;;;;;;9.75;2.50;;;15.20;99.90;;;;;;5054727;28;52080;-71
2023/08/17 02:15:57;;;;;;;11.20;2.65;;;15.20;99.90;;;;;;5063526;28;20053;-71
2023/08/17 02:18:23;;;;;;;9.82;2.95;;;15.20;99.90;;;;;;5055235;28;262017;-73
2023/08/17 02:20:49;;;;;;;10.90;2.63;;;15.20;99.90;;;;;;5067903;28;20060;-71
2023/08/17 02:23:15;;;;;;;12.32;2.85;;;15.20;99.90;;;;;;5055461;28;262989;-71
2023/08/17 02:25:41;;;;;;;11.45;2.80;;;15.20;99.90;;;;;;5065551;28;20037;-70
2023/08/17 02:28:07;;;;;;;11.10;2.60;;;15.20;99.90;;;;;;5056421;28;264222;-71
2023/08/17 02:30:34;;;;;;;11.88;2.97;;;15.20;99.90;;;;;;5068206;28;20498;-71
2023/08/17 02:33:00;;;;;;;10.88;2.60;;;15.20;99.90;;;;;;5053544;28;261986;-72
2023/08/17 02:35:26;;;;;;;11.70;2.83;;;15.20;99.90;;;;;;5067219;28;20052;-70
2023/08/17 02:37:52;;;;;;;13.68;2.92;;;15.20;99.90;;;;;;5056776;28;262182;-70
2023/08/17 02:40:18;;;;;;;11.77;3.05;;;15.20;99.90;;;;;;5067162;28;20052;-70
2023/08/17 02:42:44;;;;;;;13.18;2.70;;;15.20;99.90;;;;;;5055468;28;265529;-71
2023/08/17 02:45:10;;;;;;;11.80;2.80;;;15.10;99.90;;;;;;5061016;28;20059;-71
2023/08/17 02:47:36;;;;;;;10.13;2.75;;;15.10;99.90;;;;;;5048982;28;261803;-73
2023/08/17 02:50:03;;;;;;;10.27;3.05;;;15.10;99.90;;;;;;5064955;28;20048;-72
2023/08/17 02:52:29;;;;;;;12.82;2.70;;;15.10;99.90;;;;;;5040754;28;269959;-72
2023/08/17 02:54:55;;;;;;;11.07;2.83;;;15.10;99.90;;;;;;5069519;28;20048;-71
2023/08/17 02:57:21;;;;;;;10.45;3.08;;;15.10;99.90;;;;;;5054415;28;262402;-72
2023/08/17 02:59:47;;;;;;;13.43;3.05;;;15.10;99.90;;;;;;5070090;28;20048;-71
2023/08/17 03:02:13;;;;;;;10.70;3.38;;;15.00;99.90;;;;;;5051692;28;214057;-71
2023/08/17 03:04:40;;;;;;;9.55;3.40;;;15.10;99.90;;;;;;5077538;28;20063;-71
2023/08/17 03:07:07;;;;;;;12.45;3.60;;;15.10;99.90;;;;;;5045309;28;275161;-71
2023/08/17 03:09:33;;;;;;;14.40;3.20;;;15.10;99.90;;;;;;5072998;28;20048;-72
2023/08/17 03:11:59;;;;;;;12.25;3.30;;;15.10;99.90;;;;;;5055956;28;258435;-71
2023/08/17 03:14:25;;;;;;;11.25;3.10;;;15.00;99.90;;;;;;5084432;28;20048;-71
2023/08/17 03:16:51;;;;;;;13.80;3.78;;;15.10;99.90;;;;;;5051244;28;259979;-72
2023/08/17 03:19:18;;;;;;;13.00;3.75;;;15.00;99.90;;;;;;5082084;28;20051;-73
2023/08/17 03:21:44;;;;;;;14.15;3.70;;;15.00;99.90;;;;;;5064365;28;256202;-71
2023/08/17 03:24:10;;;;;;;10.30;3.13;;;15.00;99.90;;;;;;5073218;28;20045;-74
2023/08/17 03:26:36;;;;;;;10.60;3.30;;;15.10;99.90;;;;;;5056844;28;273069;-71
2023/08/17 03:29:02;;;;;;;15.73;3.50;;;15.00;99.90;;;;;;5068076;28;20076;-71
2023/08/17 03:31:29;;;;;;;11.30;3.70;;;15.00;99.90;;;;;;5062141;28;20487;-72
2023/08/17 03:33:55;;;;;;;10.23;3.38;;;15.00;99.90;;;;;;5059538;28;255273;-72
2023/08/17 03:36:22;;;;;;;11.77;3.50;;;15.00;99.90;;;;;;5078156;28;20057;-72
2023/08/17 03:38:48;;;;;;;11.60;3.40;;;15.00;99.90;;;;;;5056914;28;257146;-72
2023/08/17 03:41:14;;;;;;;13.80;3.30;;;15.00;99.90;;;;;;5063943;28;20049;-71
2023/08/17 03:43:40;;;;;;;12.57;2.85;;;15.00;99.90;;;;;;5055322;28;272895;-70
2023/08/17 03:46:06;;;;;;;13.30;3.50;;;15.00;99.90;;;;;;5066946;28;20442;-72
2023/08/17 03:48:32;;;;;;;12.25;3.00;;;14.90;99.90;;;;;;5050721;28;93235;-70
2023/08/17 03:50:58;;;;;;;13.52;3.38;;;15.00;99.90;;;;;;5065123;28;20053;-71
2023/08/17 03:53:24;;;;;;;12.13;3.40;;;14.90;99.90;;;;;;5021527;28;218995;-70
2023/08/17 03:55:51;;;;;;;11.65;3.20;;;14.90;99.90;;;;;;5063419;28;20059;-70
2023/08/17 03:58:18;;;;;;;14.30;3.33;;;14.90;99.90;;;;;;5055304;28;266171;-70
2023/08/17 04:00:51;;;;;;;13.45;3.35;;;14.90;99.90;;;;;;5057524;28;20507;-70
2023/08/17 04:03:17;;;;;;;13.48;3.80;;;14.90;99.90;;;;;;5049107;28;262707;-71
2023/08/17 04:05:43;;;;;;;12.10;3.42;;;14.90;99.90;;;;;;5073777;28;20052;-70
2023/08/17 04:08:09;;;;;;;15.30;3.65;;;14.90;99.90;;;;;;5046768;28;32101;-71
2023/08/17 04:10:35;;;;;;;12.23;3.55;;;14.90;99.90;;;;;;5037011;28;20053;-70
2023/08/17 04:13:02;;;;;;;15.88;3.40;;;14.80;99.90;;;;;;5038731;28;264724;-70
2023/08/17 04:15:28;;;;;;;13.80;3.42;;;14.80;99.90;;;;;;5062033;28;20064;-71
2023/08/17 04:17:54;;;;;;;10.32;3.75;;;14.80;99.90;;;;;;5057681;28;60664;-71
2023/08/17 04:20:21;;;;;;;13.50;3.58;;;14.80;99.90;;;;;;5068763;28;20052;-71
2023/08/17 04:22:47;;;;;;;14.65;3.88;;;14.80;99.90;;;;;;5054490;28;272705;-71
2023/08/17 04:25:13;;;;;;;11.77;3.95;;;14.80;99.90;;;;;;5066359;28;20049;-70
2023/08/17 04:27:40;;;;;;;11.57;3.47;;;14.90;99.90;;;;;;5044488;28;258093;-70
2023/08/17 04:30:07;;;;;;;12.98;3.80;;;14.80;99.90;;;;;;5066970;28;20051;-71
2023/08/17 04:32:33;;;;;;;11.98;3.40;;;14.90;99.90;;;;;;5053338;28;79998;-71
2023/08/17 04:34:59;;;;;;;10.95;3.35;;;14.90;99.90;;;;;;5063989;28;20059;-70
2023/08/17 04:37:25;;;;;;;12.10;3.40;;;14.90;99.90;;;;;;5047943;28;269373;-71
2023/08/17 04:39:51;;;;;;;13.15;3.45;;;14.90;99.90;;;;;;5076109;28;20053;-70
2023/08/17 04:42:19;;;;;;;11.65;3.15;;;14.90;99.90;;;;;;5057517;28;93468;-70
2023/08/17 04:44:46;;;;;;;12.85;3.45;;;14.90;99.90;;;;;;5069870;28;20064;-70
2023/08/17 04:47:12;;;;;;;13.50;3.33;;;14.90;99.90;;;;;;5049181;28;276257;-70
2023/08/17 04:49:38;;;;;;;11.95;2.95;;;15.00;99.90;;;;;;5048801;28;20127;-69
2023/08/17 04:52:04;;;;;;;11.07;2.83;;;15.00;99.90;;;;;;5010351;28;276846;-70
2023/08/17 04:54:30;;;;;;;11.90;2.88;;;15.00;99.90;;;;;;5041219;28;20053;-72
2023/08/17 04:56:56;;;;;;;10.75;2.90;;;15.00;99.90;;;;;;5032046;28;276087;-71
2023/08/17 04:59:23;;;;;;;9.55;2.50;;;15.00;99.90;;;;;;5075471;28;20067;-71
2023/08/17 05:01:49;;;;;;;9.43;2.70;;;15.00;99.90;;;;;;5049702;28;259657;-71
2023/08/17 05:04:15;;;;;;;10.55;2.70;;;15.00;99.90;;;;;;5058645;28;21263;-73
2023/08/17 05:06:42;;;;;;;10.20;2.78;;;15.10;99.90;;;;;;5048129;28;252791;-70
2023/08/17 05:09:08;;;;;;;9.95;2.88;;;15.10;99.90;;;;;;5070988;28;20059;-70
2023/08/17 05:11:34;;;;;;;10.40;2.80;;;15.10;99.90;;;;;;5064256;28;20049;-71
2023/08/17 05:14:00;;;;;;;9.77;2.53;;;15.20;99.90;;;;;;5039547;28;237746;-71
2023/08/17 05:16:27;;;;;;;12.60;3.13;;;15.30;99.90;;;;;;5063972;28;20040;-70
2023/08/17 05:18:53;;;;;;;10.88;2.40;;;15.30;99.90;;;;;;5045287;28;46290;-70
2023/08/17 05:21:19;;;;;;;11.38;2.83;;;15.30;99.90;;;;;;5057986;28;20595;-69
2023/08/17 05:23:45;;;;;;;12.25;3.00;;;15.30;99.90;;;;;;5044620;28;192710;-71
2023/08/17 05:26:11;;;;;;;12.60;3.17;;;15.40;99.90;;;;;;5057279;28;20045;-69
2023/08/17 05:28:37;;;;;;;9.57;2.80;;;15.40;99.90;;;;;;5058655;28;266854;-69
2023/08/17 05:31:06;;;;;;;12.45;2.92;;;15.50;99.90;;;;;;5063144;28;20059;-69
2023/08/17 05:33:32;;;;;;;12.02;2.90;;;15.50;99.90;;;;;;5049864;28;269712;-72
2023/08/17 05:35:58;;;;;;;9.77;2.65;;;15.60;99.90;;;;;;5054089;28;20458;-70
2023/08/17 05:38:24;;;;;;;9.65;2.40;;;15.60;99.90;;;;;;5044239;28;266561;-72
2023/08/17 05:40:57;;;;;;;9.75;2.50;;;15.60;99.90;;;;;;5046686;28;20052;-72
2023/08/17 05:43:24;;;;;;;9.40;2.60;;;15.70;99.90;;;;;;5041638;28;259262;-70
2023/08/17 05:45:50;;;;;;;13.18;2.75;;;15.80;99.90;;;;;;5055186;28;20052;-72
2023/08/17 05:48:19;;;;;;;10.70;2.60;;;15.90;99.90;;;;;;5046840;28;274199;-71
2023/08/17 05:50:45;;;;;;;10.10;2.85;;;15.90;99.90;;;;;;5063161;28;20044;-72
2023/08/17 05:53:11;;;;;;;12.98;2.67;;;16.10;99.90;;;;;;5039521;28;267722;-70
2023/08/17 05:55:37;;;;;;;11.82;2.60;;;16.10;99.90;;;;;;5060103;28;20053;-71
2023/08/17 05:58:03;;;;;;;10.23;2.67;;;16.10;99.90;;;;;;5056393;28;216108;-70
2023/08/17 06:00:30;;;;;;;11.13;2.75;;;16.10;99.90;;;;;;5070383;28;20060;-70
2023/08/17 06:03:00;;;;;;;12.20;2.53;;;16.20;99.90;;;;;;5054511;28;160189;-70
2023/08/17 06:05:28;;;;;;;14.68;2.65;;;16.20;99.90;;;;;;5071783;28;20056;-70
2023/08/17 06:07:57;;;;;;;11.02;2.55;;;16.20;99.90;;;;;;5057928;28;274527;-71
2023/08/17 06:10:27;;;;;;;10.05;2.60;;;16.20;99.90;;;;;;5071105;28;20063;-70
2023/08/17 06:12:56;;;;;;;12.13;2.80;;;16.30;99.90;;;;;;5059708;28;256112;-70
2023/08/17 06:15:23;;;;;;;10.40;2.35;;;16.40;99.90;;;;;;5068414;28;20051;-70
2023/08/17 06:17:52;;;;;;;10.32;2.30;;;16.40;99.90;;;;;;5053250;28;268441;-71
2023/08/17 06:20:18;;;;;;;13.25;2.40;;;16.50;99.90;;;;;;5070751;28;20491;-70
2023/08/17 06:22:47;;;;;;;8.40;2.10;;;16.50;99.90;;;;;;5059634;28;276019;-71
2023/08/17 06:25:13;;;;;;;12.35;2.55;;;16.50;99.90;;;;;;5073414;28;20514;-71
2023/08/17 06:27:42;;;;;;;13.05;2.60;;;16.50;99.90;;;;;;5051375;28;266183;-72
2023/08/17 06:30:08;;;;;;;11.45;2.50;;;16.50;99.90;;;;;;5070753;28;20061;-71
2023/08/17 06:32:35;;;;;;;14.23;2.80;;;16.50;99.90;;;;;;5058293;28;258441;-71
2023/08/17 06:35:01;;;;;;;13.43;2.53;;;16.60;99.90;;;;;;5074942;28;20625;-71
2023/08/17 06:37:27;;;;;;;12.32;2.47;;;16.60;99.90;;;;;;5049958;28;254778;-70
2023/08/17 06:39:53;;;;;;;13.70;2.50;;;16.70;99.90;;;;;;5073936;28;20060;-72
2023/08/17 06:42:19;;;;;;;10.60;2.30;;;16.70;99.90;;;;;;5053742;28;277102;-72
2023/08/17 06:44:45;;;;;;;18.27;3.40;;;16.70;99.90;;;;;;5076541;28;20174;-72
2023/08/17 06:47:11;;;;;;;11.93;2.55;;;16.80;99.90;;;;;;5050346;28;276405;-72
2023/08/17 06:49:38;;;;;;;15.32;2.63;;;16.90;99.90;;;;;;5076189;28;20052;-71
2023/08/17 06:52:05;;;;;;;13.43;2.78;;;17.00;99.90;;;;;;5045689;28;133430;-70
2023/08/17 06:54:32;;;;;;;17.63;2.97;;;17.00;99.90;;;;;;5069277;28;20510;-71
2023/08/17 06:56:58;;;;;;;19.92;2.85;;;17.10;99.90;;;;;;5048300;28;262223;-71
2023/08/17 06:59:24;;;;;;;16.83;2.90;;;17.10;99.90;;;;;;5076065;28;20048;-71
2023/08/17 07:01:50;;;;;;;19.73;2.58;;;17.20;99.90;;;;;;5051111;28;259002;-71
2023/08/17 07:04:16;;;;;;;13.20;2.33;;;17.20;99.90;;;;;;5042236;28;20052;-72
2023/08/17 07:06:43;;;;;;;20.95;2.75;;;17.20;99.90;;;;;;5043764;28;262144;-71
2023/08/17 07:09:12;;;;;;;12.55;2.33;;;17.40;99.90;;;;;;5070051;28;20056;-70
2023/08/17 07:11:39;;;;;;;24.13;3.05;;;17.60;99.90;;;;;;5044127;28;274853;-71
2023/08/17 07:14:07;;;;;;;16.80;2.28;;;18.00;99.90;;;;;;5083329;28;20056;-71
2023/08/17 07:16:33;;;;;;;16.27;2.10;;;18.50;99.90;;;;;;5058981;28;20057;-72
2023/08/17 07:18:59;;;;;;;9.13;1.67;;;18.50;99.90;;;;;;5064968;28;58924;-69
2023/08/17 07:21:26;;;;;;;9.15;1.50;;;18.50;99.90;;;;;;5066534;28;20056;-71
2023/08/17 07:23:54;;;;;;;8.18;1.60;;;18.50;99.90;;;;;;5053953;28;272294;-71
2023/08/17 07:26:20;;;;;;;10.18;1.92;;;18.50;99.90;;;;;;5067286;28;20047;-69
2023/08/17 07:28:47;;;;;;;9.15;1.65;;;18.60;99.90;;;;;;5041239;28;110755;-70
2023/08/17 07:31:13;;;;;;;8.02;1.30;;;18.50;99.90;;;;;;5068275;28;20495;-71
2023/08/17 07:33:39;;;;;;;10.73;1.80;;;18.40;99.90;;;;;;5046739;28;68335;-70
2023/08/17 07:36:06;;;;;;;10.38;1.75;;;18.40;99.90;;;;;;5061228;28;20055;-70
2023/08/17 07:38:32;;;;;;;7.45;1.50;;;18.30;99.90;;;;;;5039411;28;104003;-70
2023/08/17 07:40:58;;;;;;;11.13;1.42;;;18.20;99.90;;;;;;5063339;28;20425;-70
2023/08/17 07:43:24;;;;;;;8.98;1.80;;;18.20;99.90;;;;;;5047451;28;22249;-72
2023/08/17 07:45:55;;;;;;;8.90;1.40;;;18.20;99.90;;;;;;5067939;28;20607;-71
2023/08/17 07:48:21;;;;;;;9.15;1.50;;;18.30;99.90;;;;;;5058564;28;34976;-72
2023/08/17 07:50:53;;;;;;;9.25;1.48;;;18.30;99.90;;;;;;5055527;28;20052;-70
2023/08/17 07:53:19;;;;;;;8.30;1.45;;;18.40;99.90;;;;;;5039599;28;267449;-70
2023/08/17 07:55:45;;;;;;;10.02;1.75;;;18.40;99.90;;;;;;5069376;28;20048;-70
2023/08/17 07:58:12;;;;;;;7.45;1.30;;;18.50;99.90;;;;;;5057059;28;275255;-70
2023/08/17 08:00:38;;;;;;;7.40;1.20;;;18.60;99.90;;;;;;5066660;28;20068;-70
2023/08/17 08:03:04;;;;;;;8.00;1.40;;;18.60;99.90;;;;;;5048955;28;273464;-70
2023/08/17 08:05:30;;;;;;;8.10;1.30;;;18.60;99.90;;;;;;5060092;28;20063;-71
2023/08/17 08:07:56;;;;;;;8.57;1.50;;;18.70;99.90;;;;;;5049707;28;267365;-70
2023/08/17 08:10:22;;;;;;;10.15;1.52;;;18.60;99.90;;;;;;5069850;28;20048;-70
2023/08/17 08:12:48;;;;;;;7.47;1.33;;;18.60;99.90;;;;;;5051370;28;268126;-71
2023/08/17 08:15:15;;;;;;;8.43;1.50;;;18.70;99.90;;;;;;5070579;28;20767;-71
2023/08/17 08:17:41;;;;;;;7.70;1.38;;;18.60;99.90;;;;;;5047094;28;258270;-70
2023/08/17 08:20:07;;;;;;;8.93;1.17;;;18.60;99.90;;;;;;5058421;28;20051;-70
2023/08/17 08:22:33;;;;;;;8.52;1.40;;;18.60;99.90;;;;;;5046825;28;275958;-71
2023/08/17 08:24:59;;;;;;;5.63;1.20;;;18.80;99.90;;;;;;5070653;28;20052;-71
2023/08/17 08:27:26;;;;;;;7.95;1.30;;;19.00;99.90;;;;;;5046794;28;258356;-70
2023/08/17 08:29:52;;;;;;;7.68;1.20;;;19.30;99.90;;;;;;5059949;28;20048;-70
2023/08/17 08:32:18;;;;;;;6.05;1.30;;;19.60;99.90;;;;;;5051844;28;272338;-70
2023/08/17 08:34:44;;;;;;;9.07;1.30;;;20.10;99.90;;;;;;5071947;28;20063;-73
2023/08/17 08:37:10;;;;;;;7.45;1.30;;;20.70;99.90;;;;;;5051046;28;165537;-71
2023/08/17 08:39:53;;;;;;;7.38;1.38;;;21.50;99.90;;;;;;5065159;28;20067;-72
2023/08/17 08:42:21;;;;;;;8.73;1.20;;;21.90;99.90;;;;;;5046078;28;266085;-71
2023/08/17 08:44:48;;;;;;;6.95;1.30;;;21.80;99.90;;;;;;5075593;28;20043;-73
2023/08/17 08:47:17;;;;;;;6.63;1.30;;;21.90;99.90;;;;;;5052046;28;263345;-71
2023/08/17 08:50:03;;;;;;;11.50;1.30;;;22.30;99.90;;;;;;5068737;28;20056;-69
2023/08/17 08:52:38;;;;;;;9.60;1.50;;;22.30;99.90;;;;;;5034262;28;255111;-71
2023/08/17 08:55:15;;;;;;;8.15;1.20;;;22.30;99.90;;;;;;5069310;28;20049;-71
2023/08/17 08:57:42;;;;;;;9.27;1.27;;;22.40;99.90;;;;;;5048964;28;207063;-71
2023/08/17 09:00:09;;;;;;;7.60;1.25;;;22.40;99.90;;;;;;5063673;28;20060;-71
2023/08/17 09:02:35;;;;;;;12.30;1.23;;;22.20;99.90;;;;;;5054850;28;269108;-70
2023/08/17 09:05:03;;;;;;;4.50;1.08;;;22.00;99.90;;;;;;5068376;28;20528;-74
2023/08/17 09:07:30;;;;;;;5.25;1.00;;;22.20;99.90;;;;;;5048602;28;279431;-72
2023/08/17 09:09:56;;;;;;;8.55;1.35;;;22.20;99.90;;;;;;5067627;28;20048;-72
2023/08/17 09:12:22;;;;;;;7.65;1.10;;;22.70;99.90;;;;;;5047407;28;272517;-72
2023/08/17 09:14:49;;;;;;;6.95;1.13;;;22.70;99.90;;;;;;5063729;28;20052;-71
2023/08/17 09:17:26;;;;;;;7.18;1.10;;;22.60;99.90;;;;;;5039812;28;254100;-71
2023/08/17 09:19:53;;;;;;;11.02;1.40;;;22.40;99.90;;;;;;5063808;28;20438;-71
2023/08/17 09:22:42;;;;;;;6.90;1.27;;;22.20;99.90;;;;;;5045120;28;253675;-71
2023/08/17 09:25:10;;;;;;;5.82;1.30;;;22.10;99.90;;;;;;5068760;28;20048;-72
2023/08/17 09:27:38;;;;;;;6.22;1.10;;;22.00;99.90;;;;;;5044382;28;241911;-72
2023/08/17 09:30:10;;;;;;;8.85;1.60;;;21.90;99.90;;;;;;5060495;28;20740;-72
2023/08/17 09:32:36;;;;;;;10.48;1.27;;;21.60;99.90;;;;;;5052016;28;276922;-71
2023/08/17 09:35:05;;;;;;;8.60;1.30;;;21.30;99.90;;;;;;5056340;28;20063;-73
2023/08/17 09:37:32;;;;;;;8.80;1.42;;;21.10;99.90;;;;;;5047466;28;279042;-71
2023/08/17 09:39:58;;;;;;;6.88;1.33;;;21.20;99.90;;;;;;5070649;28;20049;-71
2023/08/17 09:42:25;;;;;;;7.55;1.30;;;21.20;99.90;;;;;;5051361;28;262491;-71
2023/08/17 09:44:52;;;;;;;6.15;1.40;;;21.30;99.90;;;;;;5066974;28;20056;-71
2023/08/17 09:47:21;;;;;;;6.47;1.30;;;21.30;99.90;;;;;;5047268;28;264280;-72
2023/08/17 09:49:52;;;;;;;9.80;1.40;;;21.30;99.90;;;;;;5053112;28;20415;-71
2023/08/17 09:52:19;;;;;;;6.45;1.25;;;21.30;99.90;;;;;;5032427;28;124920;-72
2023/08/17 09:54:49;;;;;;;9.65;1.40;;;21.30;99.90;;;;;;5058318;28;20056;-71
2023/08/17 09:57:16;;;;;;;7.35;1.30;;;21.30;99.90;;;;;;5047125;28;273164;-71
2023/08/17 09:59:42;;;;;;;6.88;1.10;;;21.40;99.90;;;;;;5068377;28;20045;-71
2023/08/17 10:02:19;;;;;;;8.18;1.35;;;21.40;99.90;;;;;;5041438;28;271749;-71
2023/08/17 10:04:51;;;;;;;12.27;1.63;;;21.50;99.90;;;;;;5063538;28;20052;-71
2023/08/17 10:07:20;;;;;;;18.27;2.45;;;21.50;99.90;;;;;;5042195;28;262881;-71
2023/08/17 10:09:52;;;;;;;7.95;1.60;;;21.60;99.90;;;;;;5059451;28;20431;-71
2023/08/17 10:12:19;;;;;;;8.18;1.40;;;21.60;99.90;;;;;;5045755;28;261182;-71
2023/08/17 10:14:53;;;;;;;9.35;1.40;;;22.30;99.90;;;;;;5067323;28;20048;-71
2023/08/17 10:17:26;;;;;;;9.63;1.70;;;22.20;99.90;;;;;;5043629;28;272681;-71
2023/08/17 10:19:59;;;;;;;10.88;1.48;;;22.30;99.90;;;;;;5067543;28;20056;-71
2023/08/17 10:22:39;;;;;;;7.20;1.42;;;22.40;99.90;;;;;;5051346;28;267397;-71
2023/08/17 10:25:07;;;;;;;7.78;1.48;;;23.00;99.90;;;;;;5068506;28;20060;-70
2023/08/17 10:27:35;;;;;;;7.05;1.40;;;23.50;99.80;;;;;;5042028;28;167912;-71
2023/08/17 10:30:01;;;;;;;8.68;1.40;;;23.10;99.90;;;;;;5053302;28;20067;-70
2023/08/17 10:32:28;;;;;;;8.05;1.50;;;23.20;99.90;;;;;;5045822;28;255433;-72
2023/08/17 10:34:54;;;;;;;8.25;1.70;;;23.00;99.70;;;;;;5069989;28;20056;-71
2023/08/17 10:37:21;;;;;;;7.55;1.50;;;22.80;99.90;;;;;;5049372;28;255807;-70
2023/08/17 10:39:48;;;;;;;11.25;1.50;;;22.50;99.90;;;;;;5069166;28;20064;-71
2023/08/17 10:42:16;;;;;;;8.05;1.55;;;22.40;99.90;;;;;;5050882;28;261770;-70
2023/08/17 10:44:47;;;;;;;7.25;1.52;;;22.30;99.90;;;;;;5068048;28;20053;-71
2023/08/17 10:47:28;;;;;;;9.18;1.60;;;22.30;99.90;;;;;;5048696;28;81846;-71
2023/08/17 10:50:06;;;;;;;7.75;1.60;;;22.20;99.90;;;;;;5066938;28;20061;-70
2023/08/17 10:52:35;;;;;;;7.88;1.63;;;22.10;99.90;;;;;;5031603;28;260891;-70
2023/08/17 10:55:06;;;;;;;7.68;1.50;;;22.00;99.90;;;;;;5065130;28;20055;-71
2023/08/17 10:57:42;;;;;;;9.45;1.80;;;22.00;99.90;;;;;;5057189;28;274598;-71
2023/08/17 11:00:21;;;;;;;11.07;1.83;;;22.00;99.90;;;;;;5066096;28;20052;-70
2023/08/17 11:02:55;;;;;;;8.23;1.75;;;22.00;99.90;;;;;;5049316;28;263014;-70
2023/08/17 11:05:40;;;;;;;10.50;1.98;;;22.00;99.90;;;;;;5063160;28;20107;-71
2023/08/17 11:08:10;;;;;;;6.80;1.60;;;22.00;99.90;;;;;;5045302;28;252324;-72
2023/08/17 11:10:38;;;;;;;9.25;1.83;;;22.10;99.90;;;;;;5066727;28;20048;-71
2023/08/17 11:13:04;;;;;;;9.13;1.63;;;22.20;99.90;;;;;;5054522;28;261860;-70
2023/08/17 11:15:44;;;;;;;9.80;1.80;;;22.10;99.90;;;;;;5062533;28;20506;-70
2023/08/17 11:18:12;;;;;;;7.47;1.60;;;22.20;99.90;;;;;;5058718;28;258522;-71
2023/08/17 11:20:40;;;;;;;10.75;2.03;;;22.30;99.90;;;;;;5067426;28;20061;-70
2023/08/17 11:23:08;;;;;;;9.13;2.10;;;22.20;99.90;;;;;;5059919;28;259372;-70
2023/08/17 11:25:36;;;;;;;9.43;1.77;;;21.90;99.90;;;;;;5057241;28;20063;-70
2023/08/17 11:28:03;;;;;;;8.93;1.90;;;21.90;99.90;;;;;;5051367;28;265359;-70
2023/08/17 11:30:29;;;;;;;13.68;1.85;;;22.00;99.90;;;;;;5073891;28;20059;-70
2023/08/17 11:32:56;;;;;;;7.28;1.83;;;21.90;99.90;;;;;;5052231;28;272425;-70
2023/08/17 11:35:22;;;;;;;8.60;2.00;;;22.00;99.90;;;;;;5064270;28;20522;-70
2023/08/17 11:37:49;;;;;;;9.15;2.03;;;21.90;99.90;;;;;;5050579;28;269669;-72
2023/08/17 11:40:15;;;;;;;8.13;1.70;;;21.90;99.90;;;;;;5072651;28;20074;-69
2023/08/17 11:42:43;;;;;;;9.65;1.80;;;22.00;99.90;;;;;;5054377;28;251901;-70
2023/08/17 11:45:09;;;;;;;9.77;1.98;;;22.00;99.90;;;;;;5065326;28;20071;-71
2023/08/17 11:47:44;;;;;;;7.65;1.60;;;22.00;99.90;;;;;;5045935;28;273345;-74
2023/08/17 11:50:12;;;;;;;7.53;1.85;;;21.90;99.90;;;;;;5075276;28;20059;-69
2023/08/17 11:52:38;;;;;;;7.85;1.70;;;22.00;99.90;;;;;;5031106;28;215880;-70
2023/08/17 11:55:06;;;;;;;9.70;1.88;;;22.00;99.90;;;;;;5058917;28;20052;-71
2023/08/17 11:57:33;;;;;;;8.10;1.70;;;22.30;99.90;;;;;;5051450;28;256326;-71
2023/08/17 12:00:00;;;;;;;9.75;1.90;;;22.60;99.90;;;;;;5062245;28;20052;-71
2023/08/17 12:02:27;;;;;;;10.52;1.95;;;22.50;99.90;;;;;;5057902;28;256952;-71
2023/08/17 12:04:55;;;;;;;9.32;1.88;;;22.50;99.90;;;;;;5071639;28;20055;-72
2023/08/17 12:07:23;;;;;;;9.30;2.10;;;22.70;99.90;;;;;;5045649;28;166969;-74
2023/08/17 12:09:51;;;;;;;9.55;2.13;;;22.80;99.90;;;;;;5067855;28;20060;-72
2023/08/17 12:12:18;;;;;;;9.85;2.08;;;22.80;99.90;;;;;;5048133;28;256477;-71
2023/08/17 12:14:47;;;;;;;8.63;1.98;;;22.60;99.90;;;;;;5058212;28;20063;-72
2023/08/17 12:17:18;;;;;;;8.88;1.95;;;22.60;99.90;;;;;;5043834;28;344350;-71
2023/08/17 12:19:44;;;;;;;11.93;1.83;;;22.50;99.90;;;;;;5060859;28;20051;-71
2023/08/17 12:22:12;;;;;;;10.18;1.98;;;22.60;99.90;;;;;;5048493;28;279003;-71
2023/08/17 12:24:39;;;;;;;7.25;2.05;;;22.60;99.90;;;;;;5064897;28;20512;-71
2023/08/17 12:27:08;;;;;;;10.52;1.90;;;22.60;99.90;;;;;;5045778;28;264879;-71
2023/08/17 12:29:45;;;;;;;8.60;2.00;;;22.40;99.90;;;;;;5055576;28;20064;-71
2023/08/17 12:32:13;;;;;;;7.03;1.95;;;22.50;99.90;;;;;;5051481;28;118895;-72
2023/08/17 12:34:39;;;;;;;6.65;1.65;;;22.70;99.90;;;;;;5065953;28;20170;-71
2023/08/17 12:37:05;;;;;;;7.45;1.85;;;22.70;99.90;;;;;;5051025;28;271018;-73